sensor_id;sensor_type;location;lat;lon;timestamp;P1;durP1;ratioP1;P2;durP2;ratioP2
34765;SDS011;20984;43.508;1.504;2023-04-24T00:01:41;13.40;;;5.57;;
34765;SDS011;20984;43.508;1.504;2023-04-24T00:04:07;8.10;;;5.32;;
34765;SDS011;20984;43.508;1.504;2023-04-24T00:06:35;8.40;;;4.93;;
34765;SDS011;20984;43.508;1.504;2023-04-24T00:09:07;9.35;;;5.30;;
34765;SDS011;20984;43.508;1.504;2023-04-24T00:11:35;9.20;;;6.47;;
34765;SDS011;20984;43.508;1.504;2023-04-24T00:14:01;12.48;;;5.00;;
34765;SDS011;20984;43.508;1.504;2023-04-24T00:16:27;8.77;;;5.60;;
34765;SDS011;20984;43.508;1.504;2023-04-24T00:18:53;12.00;;;6.60;;
34765;SDS011;20984;43.508;1.504;2023-04-24T00:21:20;13.98;;;5.57;;
34765;SDS011;20984;43.508;1.504;2023-04-24T00:23:46;10.57;;;5.88;;
34765;SDS011;20984;43.508;1.504;2023-04-24T00:26:12;13.18;;;6.00;;
34765;SDS011;20984;43.508;1.504;2023-04-24T00:28:38;10.15;;;6.25;;
34765;SDS011;20984;43.508;1.504;2023-04-24T00:31:04;11.32;;;6.63;;
34765;SDS011;20984;43.508;1.504;2023-04-24T00:33:30;12.90;;;6.30;;
34765;SDS011;20984;43.508;1.504;2023-04-24T00:35:55;8.60;;;5.72;;
34765;SDS011;20984;43.508;1.504;2023-04-24T00:38:21;7.90;;;5.78;;
34765;SDS011;20984;43.508;1.504;2023-04-24T00:40:47;12.30;;;5.90;;
34765;SDS011;20984;43.508;1.504;2023-04-24T00:43:15;9.57;;;5.72;;
34765;SDS011;20984;43.508;1.504;2023-04-24T00:45:41;10.90;;;5.57;;
34765;SDS011;20984;43.508;1.504;2023-04-24T00:48:06;12.77;;;5.43;;
34765;SDS011;20984;43.508;1.504;2023-04-24T00:50:33;8.10;;;4.43;;
34765;SDS011;20984;43.508;1.504;2023-04-24T00:53:00;9.10;;;5.32;;
34765;SDS011;20984;43.508;1.504;2023-04-24T00:55:26;9.48;;;4.50;;
34765;SDS011;20984;43.508;1.504;2023-04-24T00:57:52;12.57;;;5.55;;
34765;SDS011;20984;43.508;1.504;2023-04-24T01:00:17;9.80;;;4.65;;
34765;SDS011;20984;43.508;1.504;2023-04-24T01:02:44;11.95;;;4.53;;
34765;SDS011;20984;43.508;1.504;2023-04-24T01:05:11;10.13;;;4.10;;
34765;SDS011;20984;43.508;1.504;2023-04-24T01:07:38;5.07;;;3.70;;
34765;SDS011;20984;43.508;1.504;2023-04-24T01:10:08;8.52;;;3.80;;
34765;SDS011;20984;43.508;1.504;2023-04-24T01:12:34;8.18;;;4.03;;
34765;SDS011;20984;43.508;1.504;2023-04-24T01:15:00;12.75;;;4.53;;
34765;SDS011;20984;43.508;1.504;2023-04-24T01:17:26;6.70;;;3.40;;
34765;SDS011;20984;43.508;1.504;2023-04-24T01:19:52;10.63;;;3.80;;
34765;SDS011;20984;43.508;1.504;2023-04-24T01:22:21;14.23;;;4.20;;
34765;SDS011;20984;43.508;1.504;2023-04-24T01:24:47;9.50;;;4.03;;
34765;SDS011;20984;43.508;1.504;2023-04-24T01:27:13;11.93;;;4.57;;
34765;SDS011;20984;43.508;1.504;2023-04-24T01:29:39;6.93;;;4.28;;
34765;SDS011;20984;43.508;1.504;2023-04-24T01:32:05;10.40;;;3.85;;
34765;SDS011;20984;43.508;1.504;2023-04-24T01:34:31;9.30;;;4.63;;
34765;SDS011;20984;43.508;1.504;2023-04-24T01:36:58;9.38;;;4.47;;
34765;SDS011;20984;43.508;1.504;2023-04-24T01:39:24;9.80;;;4.57;;
34765;SDS011;20984;43.508;1.504;2023-04-24T01:41:50;7.70;;;3.70;;
34765;SDS011;20984;43.508;1.504;2023-04-24T01:44:17;10.50;;;3.40;;
34765;SDS011;20984;43.508;1.504;2023-04-24T01:46:43;8.48;;;4.40;;
34765;SDS011;20984;43.508;1.504;2023-04-24T01:49:09;11.52;;;3.83;;
34765;SDS011;20984;43.508;1.504;2023-04-24T01:51:35;11.63;;;4.07;;
34765;SDS011;20984;43.508;1.504;2023-04-24T01:54:01;9.95;;;3.83;;
34765;SDS011;20984;43.508;1.504;2023-04-24T01:56:28;10.05;;;3.97;;
34765;SDS011;20984;43.508;1.504;2023-04-24T01:58:54;8.38;;;3.97;;
34765;SDS011;20984;43.508;1.504;2023-04-24T02:01:21;11.70;;;4.65;;
34765;SDS011;20984;43.508;1.504;2023-04-24T02:03:49;15.50;;;4.32;;
34765;SDS011;20984;43.508;1.504;2023-04-24T02:06:15;7.05;;;3.40;;
34765;SDS011;20984;43.508;1.504;2023-04-24T02:08:40;10.02;;;3.97;;
34765;SDS011;20984;43.508;1.504;2023-04-24T02:11:08;8.13;;;4.43;;
34765;SDS011;20984;43.508;1.504;2023-04-24T02:13:34;8.95;;;3.75;;
34765;SDS011;20984;43.508;1.504;2023-04-24T02:16:00;12.68;;;4.13;;
34765;SDS011;20984;43.508;1.504;2023-04-24T02:18:25;12.07;;;3.35;;
34765;SDS011;20984;43.508;1.504;2023-04-24T02:20:51;7.68;;;3.95;;
34765;SDS011;20984;43.508;1.504;2023-04-24T02:23:17;8.23;;;3.78;;
34765;SDS011;20984;43.508;1.504;2023-04-24T02:25:42;7.63;;;3.75;;
34765;SDS011;20984;43.508;1.504;2023-04-24T02:28:08;8.45;;;4.22;;
34765;SDS011;20984;43.508;1.504;2023-04-24T02:30:34;12.07;;;4.13;;
34765;SDS011;20984;43.508;1.504;2023-04-24T02:32:59;9.20;;;4.78;;
34765;SDS011;20984;43.508;1.504;2023-04-24T02:35:25;10.23;;;4.35;;
34765;SDS011;20984;43.508;1.504;2023-04-24T02:37:51;7.45;;;3.88;;
34765;SDS011;20984;43.508;1.504;2023-04-24T02:40:16;7.57;;;4.20;;
34765;SDS011;20984;43.508;1.504;2023-04-24T02:42:42;10.55;;;4.60;;
34765;SDS011;20984;43.508;1.504;2023-04-24T02:45:07;11.63;;;4.18;;
34765;SDS011;20984;43.508;1.504;2023-04-24T02:47:33;10.70;;;4.88;;
34765;SDS011;20984;43.508;1.504;2023-04-24T02:49:59;13.77;;;4.03;;
34765;SDS011;20984;43.508;1.504;2023-04-24T02:52:25;9.40;;;4.25;;
34765;SDS011;20984;43.508;1.504;2023-04-24T02:54:50;9.57;;;3.95;;
34765;SDS011;20984;43.508;1.504;2023-04-24T02:57:16;9.38;;;3.92;;
34765;SDS011;20984;43.508;1.504;2023-04-24T02:59:42;8.40;;;3.85;;
34765;SDS011;20984;43.508;1.504;2023-04-24T03:02:07;10.20;;;4.00;;
34765;SDS011;20984;43.508;1.504;2023-04-24T03:04:33;5.25;;;3.78;;
34765;SDS011;20984;43.508;1.504;2023-04-24T03:06:59;6.03;;;4.00;;
34765;SDS011;20984;43.508;1.504;2023-04-24T03:09:24;7.60;;;3.55;;
34765;SDS011;20984;43.508;1.504;2023-04-24T03:11:50;11.63;;;3.45;;
34765;SDS011;20984;43.508;1.504;2023-04-24T03:14:16;9.13;;;3.45;;
34765;SDS011;20984;43.508;1.504;2023-04-24T03:16:41;11.48;;;4.20;;
34765;SDS011;20984;43.508;1.504;2023-04-24T03:19:07;4.32;;;3.40;;
34765;SDS011;20984;43.508;1.504;2023-04-24T03:21:33;10.93;;;4.25;;
34765;SDS011;20984;43.508;1.504;2023-04-24T03:24:00;6.30;;;3.50;;
34765;SDS011;20984;43.508;1.504;2023-04-24T03:26:26;11.70;;;3.60;;
34765;SDS011;20984;43.508;1.504;2023-04-24T03:28:51;9.05;;;3.50;;
34765;SDS011;20984;43.508;1.504;2023-04-24T03:31:17;10.57;;;3.30;;
34765;SDS011;20984;43.508;1.504;2023-04-24T03:33:44;5.75;;;3.72;;
34765;SDS011;20984;43.508;1.504;2023-04-24T03:36:09;6.07;;;3.83;;
34765;SDS011;20984;43.508;1.504;2023-04-24T03:38:35;10.70;;;3.42;;
34765;SDS011;20984;43.508;1.504;2023-04-24T03:41:00;8.73;;;3.90;;
34765;SDS011;20984;43.508;1.504;2023-04-24T03:43:26;10.35;;;3.60;;
34765;SDS011;20984;43.508;1.504;2023-04-24T03:45:52;11.35;;;3.50;;
34765;SDS011;20984;43.508;1.504;2023-04-24T03:48:18;8.40;;;4.05;;
34765;SDS011;20984;43.508;1.504;2023-04-24T03:50:44;17.63;;;3.72;;
34765;SDS011;20984;43.508;1.504;2023-04-24T03:53:09;10.02;;;3.90;;
34765;SDS011;20984;43.508;1.504;2023-04-24T03:55:35;10.63;;;3.80;;
34765;SDS011;20984;43.508;1.504;2023-04-24T03:58:00;6.93;;;4.20;;
34765;SDS011;20984;43.508;1.504;2023-04-24T04:00:26;13.82;;;3.85;;
34765;SDS011;20984;43.508;1.504;2023-04-24T04:02:52;6.22;;;3.45;;
34765;SDS011;20984;43.508;1.504;2023-04-24T04:05:18;13.13;;;3.58;;
34765;SDS011;20984;43.508;1.504;2023-04-24T04:07:44;10.52;;;3.60;;
34765;SDS011;20984;43.508;1.504;2023-04-24T04:10:10;10.93;;;3.35;;
34765;SDS011;20984;43.508;1.504;2023-04-24T04:12:35;8.27;;;3.53;;
34765;SDS011;20984;43.508;1.504;2023-04-24T04:15:01;9.18;;;4.40;;
34765;SDS011;20984;43.508;1.504;2023-04-24T04:17:27;11.38;;;3.63;;
34765;SDS011;20984;43.508;1.504;2023-04-24T04:19:52;5.93;;;3.70;;
34765;SDS011;20984;43.508;1.504;2023-04-24T04:22:18;6.88;;;2.85;;
34765;SDS011;20984;43.508;1.504;2023-04-24T04:24:43;7.80;;;3.35;;
34765;SDS011;20984;43.508;1.504;2023-04-24T04:27:09;8.48;;;2.90;;
34765;SDS011;20984;43.508;1.504;2023-04-24T04:29:35;7.47;;;3.95;;
34765;SDS011;20984;43.508;1.504;2023-04-24T04:32:01;7.60;;;3.10;;
34765;SDS011;20984;43.508;1.504;2023-04-24T04:34:27;8.15;;;4.05;;
34765;SDS011;20984;43.508;1.504;2023-04-24T04:36:53;5.13;;;3.00;;
34765;SDS011;20984;43.508;1.504;2023-04-24T04:39:19;11.43;;;3.28;;
34765;SDS011;20984;43.508;1.504;2023-04-24T04:41:45;7.97;;;2.85;;
34765;SDS011;20984;43.508;1.504;2023-04-24T04:44:14;3.55;;;3.00;;
34765;SDS011;20984;43.508;1.504;2023-04-24T04:46:40;8.50;;;3.15;;
34765;SDS011;20984;43.508;1.504;2023-04-24T04:49:06;9.27;;;3.00;;
34765;SDS011;20984;43.508;1.504;2023-04-24T04:51:33;6.43;;;3.08;;
34765;SDS011;20984;43.508;1.504;2023-04-24T04:53:59;9.13;;;3.40;;
34765;SDS011;20984;43.508;1.504;2023-04-24T04:56:25;10.48;;;3.05;;
34765;SDS011;20984;43.508;1.504;2023-04-24T04:58:51;9.45;;;3.67;;
34765;SDS011;20984;43.508;1.504;2023-04-24T05:01:16;10.40;;;3.72;;
34765;SDS011;20984;43.508;1.504;2023-04-24T05:03:42;8.15;;;3.60;;
34765;SDS011;20984;43.508;1.504;2023-04-24T05:06:08;7.55;;;3.20;;
34765;SDS011;20984;43.508;1.504;2023-04-24T05:08:34;8.38;;;3.47;;
34765;SDS011;20984;43.508;1.504;2023-04-24T05:10:59;8.63;;;3.80;;
34765;SDS011;20984;43.508;1.504;2023-04-24T05:13:25;6.38;;;3.42;;
34765;SDS011;20984;43.508;1.504;2023-04-24T05:15:51;7.13;;;3.20;;
34765;SDS011;20984;43.508;1.504;2023-04-24T05:18:17;5.30;;;3.03;;
34765;SDS011;20984;43.508;1.504;2023-04-24T05:20:43;7.80;;;2.97;;
34765;SDS011;20984;43.508;1.504;2023-04-24T05:23:09;11.52;;;4.43;;
34765;SDS011;20984;43.508;1.504;2023-04-24T05:25:35;11.73;;;4.30;;
34765;SDS011;20984;43.508;1.504;2023-04-24T05:28:01;8.88;;;4.28;;
34765;SDS011;20984;43.508;1.504;2023-04-24T05:30:27;9.68;;;3.78;;
34765;SDS011;20984;43.508;1.504;2023-04-24T05:32:53;9.15;;;3.40;;
34765;SDS011;20984;43.508;1.504;2023-04-24T05:35:19;11.38;;;3.60;;
34765;SDS011;20984;43.508;1.504;2023-04-24T05:37:44;11.45;;;3.70;;
34765;SDS011;20984;43.508;1.504;2023-04-24T05:40:11;10.18;;;4.47;;
34765;SDS011;20984;43.508;1.504;2023-04-24T05:42:36;10.95;;;3.75;;
34765;SDS011;20984;43.508;1.504;2023-04-24T05:45:02;12.48;;;3.53;;
34765;SDS011;20984;43.508;1.504;2023-04-24T05:47:29;11.68;;;3.92;;
34765;SDS011;20984;43.508;1.504;2023-04-24T05:49:55;14.52;;;3.85;;
34765;SDS011;20984;43.508;1.504;2023-04-24T05:52:21;9.25;;;3.80;;
34765;SDS011;20984;43.508;1.504;2023-04-24T05:54:46;19.85;;;4.43;;
34765;SDS011;20984;43.508;1.504;2023-04-24T05:57:12;18.35;;;4.97;;
34765;SDS011;20984;43.508;1.504;2023-04-24T05:59:38;23.88;;;7.32;;
34765;SDS011;20984;43.508;1.504;2023-04-24T06:02:05;12.73;;;4.22;;
34765;SDS011;20984;43.508;1.504;2023-04-24T06:04:32;10.18;;;4.60;;
34765;SDS011;20984;43.508;1.504;2023-04-24T06:06:58;11.63;;;3.38;;
34765;SDS011;20984;43.508;1.504;2023-04-24T06:09:24;10.93;;;4.13;;
34765;SDS011;20984;43.508;1.504;2023-04-24T06:11:51;11.45;;;3.78;;
34765;SDS011;20984;43.508;1.504;2023-04-24T06:14:19;12.45;;;3.58;;
34765;SDS011;20984;43.508;1.504;2023-04-24T06:16:46;8.65;;;4.35;;
34765;SDS011;20984;43.508;1.504;2023-04-24T06:19:11;8.07;;;3.35;;
34765;SDS011;20984;43.508;1.504;2023-04-24T06:21:37;13.63;;;4.85;;
34765;SDS011;20984;43.508;1.504;2023-04-24T06:24:03;12.27;;;4.05;;
34765;SDS011;20984;43.508;1.504;2023-04-24T06:26:29;21.25;;;4.35;;
34765;SDS011;20984;43.508;1.504;2023-04-24T06:28:55;12.63;;;3.97;;
34765;SDS011;20984;43.508;1.504;2023-04-24T06:31:21;12.23;;;4.28;;
34765;SDS011;20984;43.508;1.504;2023-04-24T06:33:48;8.10;;;4.03;;
34765;SDS011;20984;43.508;1.504;2023-04-24T06:36:14;9.93;;;4.47;;
34765;SDS011;20984;43.508;1.504;2023-04-24T06:38:40;15.45;;;3.50;;
34765;SDS011;20984;43.508;1.504;2023-04-24T06:41:06;12.82;;;4.00;;
34765;SDS011;20984;43.508;1.504;2023-04-24T06:43:32;8.98;;;3.97;;
34765;SDS011;20984;43.508;1.504;2023-04-24T06:45:58;13.05;;;3.60;;
34765;SDS011;20984;43.508;1.504;2023-04-24T06:48:24;9.93;;;3.92;;
34765;SDS011;20984;43.508;1.504;2023-04-24T06:50:50;13.52;;;3.97;;
34765;SDS011;20984;43.508;1.504;2023-04-24T06:53:16;11.60;;;4.20;;
34765;SDS011;20984;43.508;1.504;2023-04-24T06:55:42;11.90;;;3.40;;
34765;SDS011;20984;43.508;1.504;2023-04-24T06:58:10;7.10;;;3.78;;
34765;SDS011;20984;43.508;1.504;2023-04-24T07:00:36;12.77;;;3.22;;
34765;SDS011;20984;43.508;1.504;2023-04-24T07:03:01;9.68;;;3.75;;
34765;SDS011;20984;43.508;1.504;2023-04-24T07:05:30;7.25;;;3.33;;
34765;SDS011;20984;43.508;1.504;2023-04-24T07:07:56;5.78;;;3.17;;
34765;SDS011;20984;43.508;1.504;2023-04-24T07:10:23;6.40;;;3.22;;
34765;SDS011;20984;43.508;1.504;2023-04-24T07:12:49;12.05;;;4.10;;
34765;SDS011;20984;43.508;1.504;2023-04-24T07:15:15;10.05;;;4.15;;
34765;SDS011;20984;43.508;1.504;2023-04-24T07:17:41;11.15;;;4.13;;
34765;SDS011;20984;43.508;1.504;2023-04-24T07:20:10;7.75;;;3.78;;
34765;SDS011;20984;43.508;1.504;2023-04-24T07:22:39;13.73;;;4.38;;
34765;SDS011;20984;43.508;1.504;2023-04-24T07:25:05;12.25;;;3.78;;
34765;SDS011;20984;43.508;1.504;2023-04-24T07:27:32;7.35;;;3.35;;
34765;SDS011;20984;43.508;1.504;2023-04-24T07:29:58;7.40;;;3.88;;
34765;SDS011;20984;43.508;1.504;2023-04-24T07:32:24;15.18;;;4.38;;
34765;SDS011;20984;43.508;1.504;2023-04-24T07:34:50;12.50;;;3.33;;
34765;SDS011;20984;43.508;1.504;2023-04-24T07:37:15;6.97;;;3.33;;
34765;SDS011;20984;43.508;1.504;2023-04-24T07:39:41;10.32;;;3.50;;
34765;SDS011;20984;43.508;1.504;2023-04-24T07:42:07;7.43;;;2.90;;
34765;SDS011;20984;43.508;1.504;2023-04-24T07:44:33;7.40;;;3.08;;
34765;SDS011;20984;43.508;1.504;2023-04-24T07:46:59;12.18;;;3.00;;
34765;SDS011;20984;43.508;1.504;2023-04-24T07:49:24;8.57;;;3.13;;
34765;SDS011;20984;43.508;1.504;2023-04-24T07:51:50;7.25;;;3.08;;
34765;SDS011;20984;43.508;1.504;2023-04-24T07:54:16;3.90;;;2.10;;
34765;SDS011;20984;43.508;1.504;2023-04-24T07:56:42;5.05;;;2.28;;
34765;SDS011;20984;43.508;1.504;2023-04-24T07:59:08;5.22;;;2.75;;
34765;SDS011;20984;43.508;1.504;2023-04-24T08:01:35;7.57;;;2.63;;
34765;SDS011;20984;43.508;1.504;2023-04-24T08:04:01;8.10;;;2.30;;
34765;SDS011;20984;43.508;1.504;2023-04-24T08:06:26;12.63;;;3.58;;
34765;SDS011;20984;43.508;1.504;2023-04-24T08:08:56;10.40;;;2.10;;
34765;SDS011;20984;43.508;1.504;2023-04-24T08:11:23;10.15;;;3.40;;
34765;SDS011;20984;43.508;1.504;2023-04-24T08:13:50;4.15;;;2.35;;
34765;SDS011;20984;43.508;1.504;2023-04-24T08:16:15;8.27;;;2.80;;
34765;SDS011;20984;43.508;1.504;2023-04-24T08:18:41;6.60;;;2.13;;
34765;SDS011;20984;43.508;1.504;2023-04-24T08:21:07;9.50;;;3.05;;
34765;SDS011;20984;43.508;1.504;2023-04-24T08:23:32;10.23;;;3.33;;
34765;SDS011;20984;43.508;1.504;2023-04-24T08:25:58;3.88;;;2.38;;
34765;SDS011;20984;43.508;1.504;2023-04-24T08:28:24;6.20;;;2.10;;
34765;SDS011;20984;43.508;1.504;2023-04-24T08:30:50;7.93;;;2.88;;
34765;SDS011;20984;43.508;1.504;2023-04-24T08:33:19;7.47;;;3.17;;
34765;SDS011;20984;43.508;1.504;2023-04-24T08:35:46;11.77;;;2.40;;
34765;SDS011;20984;43.508;1.504;2023-04-24T08:38:11;4.38;;;2.75;;
34765;SDS011;20984;43.508;1.504;2023-04-24T08:40:37;12.55;;;3.30;;
34765;SDS011;20984;43.508;1.504;2023-04-24T08:43:04;7.38;;;2.03;;
34765;SDS011;20984;43.508;1.504;2023-04-24T08:45:30;8.75;;;2.42;;
34765;SDS011;20984;43.508;1.504;2023-04-24T08:47:57;2.65;;;1.77;;
34765;SDS011;20984;43.508;1.504;2023-04-24T08:50:24;4.53;;;2.13;;
34765;SDS011;20984;43.508;1.504;2023-04-24T08:52:50;9.68;;;2.42;;
34765;SDS011;20984;43.508;1.504;2023-04-24T08:55:18;3.60;;;2.17;;
34765;SDS011;20984;43.508;1.504;2023-04-24T08:57:45;4.80;;;2.25;;
34765;SDS011;20984;43.508;1.504;2023-04-24T09:00:16;2.00;;;1.80;;
34765;SDS011;20984;43.508;1.504;2023-04-24T09:02:43;3.95;;;1.85;;
34765;SDS011;20984;43.508;1.504;2023-04-24T09:05:09;4.57;;;2.05;;
34765;SDS011;20984;43.508;1.504;2023-04-24T09:07:35;8.77;;;2.33;;
34765;SDS011;20984;43.508;1.504;2023-04-24T09:10:04;4.75;;;1.92;;
34765;SDS011;20984;43.508;1.504;2023-04-24T09:12:31;3.65;;;1.90;;
34765;SDS011;20984;43.508;1.504;2023-04-24T09:14:59;5.63;;;2.50;;
34765;SDS011;20984;43.508;1.504;2023-04-24T09:17:25;4.47;;;1.80;;
34765;SDS011;20984;43.508;1.504;2023-04-24T09:19:53;2.20;;;2.00;;
34765;SDS011;20984;43.508;1.504;2023-04-24T09:22:19;4.45;;;1.80;;
34765;SDS011;20984;43.508;1.504;2023-04-24T09:24:46;7.82;;;1.90;;
34765;SDS011;20984;43.508;1.504;2023-04-24T09:27:12;5.28;;;2.35;;
34765;SDS011;20984;43.508;1.504;2023-04-24T09:29:39;8.13;;;1.88;;
34765;SDS011;20984;43.508;1.504;2023-04-24T09:32:19;11.80;;;1.75;;
34765;SDS011;20984;43.508;1.504;2023-04-24T09:35:06;4.72;;;1.95;;
34765;SDS011;20984;43.508;1.504;2023-04-24T09:37:46;5.00;;;1.83;;
34765;SDS011;20984;43.508;1.504;2023-04-24T09:40:20;3.08;;;2.00;;
34765;SDS011;20984;43.508;1.504;2023-04-24T09:42:54;4.70;;;1.52;;
34765;SDS011;20984;43.508;1.504;2023-04-24T09:45:22;4.57;;;1.63;;
34765;SDS011;20984;43.508;1.504;2023-04-24T09:47:52;4.38;;;1.33;;
34765;SDS011;20984;43.508;1.504;2023-04-24T09:50:21;4.93;;;1.77;;
34765;SDS011;20984;43.508;1.504;2023-04-24T09:52:57;1.63;;;1.38;;
34765;SDS011;20984;43.508;1.504;2023-04-24T09:55:26;5.47;;;1.75;;
34765;SDS011;20984;43.508;1.504;2023-04-24T09:57:55;2.75;;;1.40;;
34765;SDS011;20984;43.508;1.504;2023-04-24T10:00:22;3.22;;;1.38;;
34765;SDS011;20984;43.508;1.504;2023-04-24T10:05:29;8.35;;;1.98;;
34765;SDS011;20984;43.508;1.504;2023-04-24T10:07:56;3.83;;;1.80;;
34765;SDS011;20984;43.508;1.504;2023-04-24T10:10:25;4.60;;;1.88;;
34765;SDS011;20984;43.508;1.504;2023-04-24T10:12:51;6.32;;;1.60;;
34765;SDS011;20984;43.508;1.504;2023-04-24T10:15:18;5.55;;;2.30;;
34765;SDS011;20984;43.508;1.504;2023-04-24T10:17:47;5.10;;;1.65;;
34765;SDS011;20984;43.508;1.504;2023-04-24T10:20:20;6.18;;;2.20;;
34765;SDS011;20984;43.508;1.504;2023-04-24T10:22:54;3.95;;;1.75;;
34765;SDS011;20984;43.508;1.504;2023-04-24T10:25:22;8.30;;;2.05;;
34765;SDS011;20984;43.508;1.504;2023-04-24T10:27:50;3.88;;;1.38;;
34765;SDS011;20984;43.508;1.504;2023-04-24T10:30:18;3.65;;;2.30;;
34765;SDS011;20984;43.508;1.504;2023-04-24T10:32:44;7.90;;;2.28;;
34765;SDS011;20984;43.508;1.504;2023-04-24T10:35:14;6.35;;;1.90;;
34765;SDS011;20984;43.508;1.504;2023-04-24T10:37:51;1.90;;;1.30;;
34765;SDS011;20984;43.508;1.504;2023-04-24T10:40:25;2.58;;;1.50;;
34765;SDS011;20984;43.508;1.504;2023-04-24T10:42:53;6.25;;;1.52;;
34765;SDS011;20984;43.508;1.504;2023-04-24T10:45:19;8.23;;;1.90;;
34765;SDS011;20984;43.508;1.504;2023-04-24T10:48:03;4.53;;;1.80;;
34765;SDS011;20984;43.508;1.504;2023-04-24T10:50:30;5.22;;;1.95;;
34765;SDS011;20984;43.508;1.504;2023-04-24T10:53:18;1.92;;;1.60;;
34765;SDS011;20984;43.508;1.504;2023-04-24T10:55:57;2.05;;;1.48;;
34765;SDS011;20984;43.508;1.504;2023-04-24T11:01:25;7.72;;;1.60;;
34765;SDS011;20984;43.508;1.504;2023-04-24T11:03:55;4.93;;;1.55;;
34765;SDS011;20984;43.508;1.504;2023-04-24T11:06:32;6.97;;;1.60;;
34765;SDS011;20984;43.508;1.504;2023-04-24T11:09:09;3.63;;;1.50;;
34765;SDS011;20984;43.508;1.504;2023-04-24T11:11:37;2.65;;;1.60;;
34765;SDS011;20984;43.508;1.504;2023-04-24T11:14:09;4.93;;;1.50;;
34765;SDS011;20984;43.508;1.504;2023-04-24T11:16:37;9.50;;;1.80;;
34765;SDS011;20984;43.508;1.504;2023-04-24T11:19:07;3.65;;;1.88;;
34765;SDS011;20984;43.508;1.504;2023-04-24T11:21:43;3.20;;;1.40;;
34765;SDS011;20984;43.508;1.504;2023-04-24T11:26:56;2.40;;;1.70;;
34765;SDS011;20984;43.508;1.504;2023-04-24T11:32:24;2.75;;;1.42;;
34765;SDS011;20984;43.508;1.504;2023-04-24T11:35:10;3.33;;;1.40;;
34765;SDS011;20984;43.508;1.504;2023-04-24T11:37:43;4.43;;;1.80;;
34765;SDS011;20984;43.508;1.504;2023-04-24T11:40:12;3.50;;;1.48;;
34765;SDS011;20984;43.508;1.504;2023-04-24T11:42:41;3.75;;;1.25;;
34765;SDS011;20984;43.508;1.504;2023-04-24T11:45:10;1.80;;;1.30;;
34765;SDS011;20984;43.508;1.504;2023-04-24T11:47:37;3.97;;;1.73;;
34765;SDS011;20984;43.508;1.504;2023-04-24T11:50:04;5.18;;;1.80;;
34765;SDS011;20984;43.508;1.504;2023-04-24T11:52:32;4.45;;;1.40;;
34765;SDS011;20984;43.508;1.504;2023-04-24T11:55:01;3.58;;;2.00;;
34765;SDS011;20984;43.508;1.504;2023-04-24T11:57:28;8.13;;;2.45;;
34765;SDS011;20984;43.508;1.504;2023-04-24T11:59:59;3.20;;;1.77;;
34765;SDS011;20984;43.508;1.504;2023-04-24T12:02:28;3.95;;;1.63;;
34765;SDS011;20984;43.508;1.504;2023-04-24T12:04:54;3.67;;;1.83;;
34765;SDS011;20984;43.508;1.504;2023-04-24T12:07:20;3.70;;;1.52;;
34765;SDS011;20984;43.508;1.504;2023-04-24T12:09:47;7.45;;;1.70;;
34765;SDS011;20984;43.508;1.504;2023-04-24T12:12:15;8.60;;;1.98;;
34765;SDS011;20984;43.508;1.504;2023-04-24T12:17:17;4.68;;;1.90;;
34765;SDS011;20984;43.508;1.504;2023-04-24T12:19:59;7.85;;;1.88;;
34765;SDS011;20984;43.508;1.504;2023-04-24T12:25:24;5.68;;;1.73;;
34765;SDS011;20984;43.508;1.504;2023-04-24T12:30:38;3.35;;;1.58;;
34765;SDS011;20984;43.508;1.504;2023-04-24T12:33:09;3.20;;;1.73;;
34765;SDS011;20984;43.508;1.504;2023-04-24T12:35:35;1.88;;;1.27;;
34765;SDS011;20984;43.508;1.504;2023-04-24T12:38:05;6.57;;;1.77;;
34765;SDS011;20984;43.508;1.504;2023-04-24T12:42:57;7.32;;;1.60;;
34765;SDS011;20984;43.508;1.504;2023-04-24T12:45:23;3.80;;;1.67;;
34765;SDS011;20984;43.508;1.504;2023-04-24T12:47:50;5.50;;;2.00;;
34765;SDS011;20984;43.508;1.504;2023-04-24T12:50:16;5.88;;;1.70;;
34765;SDS011;20984;43.508;1.504;2023-04-24T12:52:42;4.07;;;1.60;;
34765;SDS011;20984;43.508;1.504;2023-04-24T12:55:08;8.90;;;2.03;;
34765;SDS011;20984;43.508;1.504;2023-04-24T12:57:35;4.63;;;1.25;;
34765;SDS011;20984;43.508;1.504;2023-04-24T13:00:02;4.78;;;1.90;;
34765;SDS011;20984;43.508;1.504;2023-04-24T13:02:29;6.03;;;1.75;;
34765;SDS011;20984;43.508;1.504;2023-04-24T13:04:56;5.15;;;2.05;;
34765;SDS011;20984;43.508;1.504;2023-04-24T13:07:22;5.13;;;1.80;;
34765;SDS011;20984;43.508;1.504;2023-04-24T13:09:49;3.30;;;1.42;;
34765;SDS011;20984;43.508;1.504;2023-04-24T13:12:15;3.67;;;1.30;;
34765;SDS011;20984;43.508;1.504;2023-04-24T13:14:41;5.65;;;1.98;;
34765;SDS011;20984;43.508;1.504;2023-04-24T13:17:07;4.03;;;1.80;;
34765;SDS011;20984;43.508;1.504;2023-04-24T13:19:37;10.43;;;3.08;;
34765;SDS011;20984;43.508;1.504;2023-04-24T13:22:05;7.97;;;1.92;;
34765;SDS011;20984;43.508;1.504;2023-04-24T13:24:31;6.65;;;1.80;;
34765;SDS011;20984;43.508;1.504;2023-04-24T13:26:57;4.22;;;1.50;;
34765;SDS011;20984;43.508;1.504;2023-04-24T13:29:23;2.67;;;1.42;;
34765;SDS011;20984;43.508;1.504;2023-04-24T13:31:53;3.40;;;1.25;;
34765;SDS011;20984;43.508;1.504;2023-04-24T13:34:20;2.97;;;1.50;;
34765;SDS011;20984;43.508;1.504;2023-04-24T13:36:46;4.93;;;1.67;;
34765;SDS011;20984;43.508;1.504;2023-04-24T13:39:12;4.57;;;2.10;;
34765;SDS011;20984;43.508;1.504;2023-04-24T13:41:37;3.80;;;1.63;;
34765;SDS011;20984;43.508;1.504;2023-04-24T13:44:03;5.35;;;1.55;;
34765;SDS011;20984;43.508;1.504;2023-04-24T13:46:29;5.40;;;2.05;;
34765;SDS011;20984;43.508;1.504;2023-04-24T13:48:55;5.00;;;1.75;;
34765;SDS011;20984;43.508;1.504;2023-04-24T13:51:22;4.30;;;1.55;;
34765;SDS011;20984;43.508;1.504;2023-04-24T13:53:48;4.15;;;1.30;;
34765;SDS011;20984;43.508;1.504;2023-04-24T13:56:14;6.72;;;1.70;;
34765;SDS011;20984;43.508;1.504;2023-04-24T13:58:40;5.85;;;1.42;;
34765;SDS011;20984;43.508;1.504;2023-04-24T14:01:06;6.40;;;1.63;;
34765;SDS011;20984;43.508;1.504;2023-04-24T14:03:32;7.78;;;1.45;;
34765;SDS011;20984;43.508;1.504;2023-04-24T14:05:58;5.85;;;1.45;;
34765;SDS011;20984;43.508;1.504;2023-04-24T14:08:24;5.80;;;1.60;;
34765;SDS011;20984;43.508;1.504;2023-04-24T14:10:50;4.15;;;1.50;;
34765;SDS011;20984;43.508;1.504;2023-04-24T14:13:16;5.72;;;1.75;;
34765;SDS011;20984;43.508;1.504;2023-04-24T14:15:42;4.65;;;1.50;;
34765;SDS011;20984;43.508;1.504;2023-04-24T14:18:07;5.03;;;1.42;;
34765;SDS011;20984;43.508;1.504;2023-04-24T14:20:33;6.63;;;1.58;;
34765;SDS011;20984;43.508;1.504;2023-04-24T14:22:59;6.45;;;2.00;;
34765;SDS011;20984;43.508;1.504;2023-04-24T14:25:25;4.40;;;1.58;;
34765;SDS011;20984;43.508;1.504;2023-04-24T14:27:51;6.03;;;1.63;;
34765;SDS011;20984;43.508;1.504;2023-04-24T14:30:17;5.82;;;1.30;;
34765;SDS011;20984;43.508;1.504;2023-04-24T14:32:43;6.43;;;1.48;;
34765;SDS011;20984;43.508;1.504;2023-04-24T14:35:08;6.72;;;1.95;;
34765;SDS011;20984;43.508;1.504;2023-04-24T14:37:34;4.60;;;1.40;;
34765;SDS011;20984;43.508;1.504;2023-04-24T14:40:01;4.78;;;1.50;;
34765;SDS011;20984;43.508;1.504;2023-04-24T14:42:27;8.00;;;1.77;;
34765;SDS011;20984;43.508;1.504;2023-04-24T14:44:53;4.53;;;1.77;;
34765;SDS011;20984;43.508;1.504;2023-04-24T14:47:19;5.78;;;1.45;;
34765;SDS011;20984;43.508;1.504;2023-04-24T14:49:47;6.70;;;1.50;;
34765;SDS011;20984;43.508;1.504;2023-04-24T14:52:15;6.25;;;1.60;;
34765;SDS011;20984;43.508;1.504;2023-04-24T14:54:41;3.60;;;1.40;;
34765;SDS011;20984;43.508;1.504;2023-04-24T14:57:07;8.20;;;1.98;;
34765;SDS011;20984;43.508;1.504;2023-04-24T14:59:33;5.30;;;1.75;;
34765;SDS011;20984;43.508;1.504;2023-04-24T15:01:59;4.95;;;1.67;;
34765;SDS011;20984;43.508;1.504;2023-04-24T15:04:24;6.03;;;1.88;;